Andersonville, Virginia
Current Conditions -  °F | °C
As of 3:35 AM on Friday 19 Dec 2014 (Local Time) from KFVX Reporting Station
Broken Clouds Broken Clouds  
Wind Chill: 33°   Ceiling: 9000
Heat Index: 33°   Visibility: 10mi
Dew Point: 26°   Wind: 0mph
Humidity: 74%   Direction: NA
Pressure: 30.11"   Gusts: NA
Location:  37.47°N, 78.57°W
Report Text: KFVX 190835Z AUTO 00000KT 10SM BKN090 01/M04 A3011 RMK AO2 T00051036
Loading
Personal Weather Stations






























Interactive Weather Map New forecast layout! Learn more

10-Day Weather Forecast

Advertisements
Track Severe Weather on mobile